Time;durP1;ratioP1;P1;durP2;ratioP2;P2;SDS_P1;SDS_P2;PMS_P1;PMS_P2;Temp;Humidity;BMP_temperature;BMP_pressure;BME280_temperature;BME280_humidity;BME280_pressure;Samples;Min_cycle;Max_cycle;Signal;HPM_P1;HPM_P2
2022/05/08 00:02:21;;;;;;;2.22;1.40;;;11.70;88.70;;;;;;5018964;28;20030;-57
2022/05/08 00:04:51;;;;;;;7.07;1.98;;;11.60;88.80;;;;;;5022335;28;20033;-57
2022/05/08 00:07:17;;;;;;;3.83;1.30;;;11.60;89.10;;;;;;5027313;28;20460;-59
2022/05/08 00:09:44;;;;;;;1.20;1.10;;;11.60;89.10;;;;;;5021853;28;20100;-59
2022/05/08 00:12:11;;;;;;;2.33;1.20;;;11.50;89.00;;;;;;5011723;28;20113;-59
2022/05/08 00:14:38;;;;;;;2.22;1.30;;;11.50;89.40;;;;;;5020261;28;20029;-57
2022/05/08 00:17:04;;;;;;;2.15;1.13;;;11.50;89.20;;;;;;5021487;28;20113;-57
2022/05/08 00:19:30;;;;;;;2.20;1.13;;;11.50;89.40;;;;;;5014683;28;20034;-57
2022/05/08 00:21:55;;;;;;;1.90;1.40;;;11.40;89.90;;;;;;5022517;28;20033;-57
2022/05/08 00:24:21;;;;;;;2.00;1.40;;;11.40;90.10;;;;;;5020028;28;20018;-57
2022/05/08 00:26:47;;;;;;;2.85;1.30;;;11.40;90.10;;;;;;5019820;28;20466;-57
2022/05/08 00:29:12;;;;;;;3.17;1.23;;;11.40;90.20;;;;;;5015146;28;20125;-56
2022/05/08 00:31:38;;;;;;;1.73;1.00;;;11.40;90.30;;;;;;5022151;28;20099;-57
2022/05/08 00:34:04;;;;;;;1.58;1.30;;;11.30;90.50;;;;;;5025408;28;20030;-57
2022/05/08 00:36:30;;;;;;;2.25;1.38;;;11.30;90.50;;;;;;5013734;28;20034;-57
2022/05/08 00:38:56;;;;;;;1.98;1.00;;;11.30;90.50;;;;;;5012684;28;20037;-57
2022/05/08 00:41:21;;;;;;;2.03;1.27;;;11.30;90.60;;;;;;5023923;28;20405;-56
2022/05/08 00:43:48;;;;;;;2.85;1.77;;;11.30;90.70;;;;;;5011627;28;20117;-57
2022/05/08 00:46:16;;;;;;;2.60;1.50;;;11.30;90.50;;;;;;5015715;28;20193;-58
2022/05/08 00:48:42;;;;;;;1.80;1.20;;;11.30;90.50;;;;;;5021600;28;20029;-56
2022/05/08 00:51:10;;;;;;;2.13;1.63;;;11.30;90.60;;;;;;5022623;28;20048;-57
2022/05/08 00:53:39;;;;;;;2.17;1.52;;;11.30;90.60;;;;;;5030335;28;20069;-57
2022/05/08 00:56:07;;;;;;;2.40;1.52;;;11.20;90.40;;;;;;5023385;28;20029;-56
2022/05/08 00:58:35;;;;;;;3.78;2.15;;;11.10;90.60;;;;;;5021629;28;20076;-57
2022/05/08 01:01:02;;;;;;;3.10;1.40;;;11.00;90.60;;;;;;5021678;28;20030;-57
2022/05/08 01:03:27;;;;;;;3.42;1.92;;;11.00;90.80;;;;;;5025418;28;20045;-57
2022/05/08 01:05:54;;;;;;;3.97;2.20;;;11.00;90.70;;;;;;5018500;28;20033;-57
2022/05/08 01:08:21;;;;;;;2.45;1.63;;;11.00;90.60;;;;;;5027079;28;20366;-60
2022/05/08 01:10:48;;;;;;;3.90;1.83;;;11.10;90.50;;;;;;5020281;28;20034;-57
2022/05/08 01:13:13;;;;;;;4.63;1.70;;;11.10;90.50;;;;;;5017514;28;20022;-58
2022/05/08 01:15:45;;;;;;;2.75;2.05;;;11.00;90.40;;;;;;5021927;28;20060;-57
2022/05/08 01:18:13;;;;;;;2.78;1.77;;;11.00;90.70;;;;;;5009932;28;20084;-57
2022/05/08 01:20:40;;;;;;;2.13;1.70;;;10.90;90.90;;;;;;5026875;28;20034;-57
2022/05/08 01:23:06;;;;;;;2.65;1.92;;;10.80;91.10;;;;;;5016201;28;20049;-57
2022/05/08 01:25:34;;;;;;;2.90;1.92;;;10.70;91.00;;;;;;5029110;28;20064;-57
2022/05/08 01:28:04;;;;;;;3.63;1.90;;;10.70;91.00;;;;;;5026589;28;20099;-57
2022/05/08 01:30:31;;;;;;;2.13;1.73;;;10.70;91.10;;;;;;5019409;28;20033;-57
2022/05/08 01:32:58;;;;;;;3.25;2.08;;;10.50;91.10;;;;;;5018364;28;20026;-58
2022/05/08 01:35:30;;;;;;;2.97;1.92;;;10.30;91.60;;;;;;5024701;28;20071;-57
2022/05/08 01:37:55;;;;;;;;;;;10.20;91.70;;;;;;5012067;28;20644;-57
2022/05/08 01:40:21;;;;;;;2.65;1.90;;;10.20;91.70;;;;;;5026632;28;20327;-57
2022/05/08 01:42:47;;;;;;;4.15;1.50;;;10.20;91.40;;;;;;5020107;28;20037;-57
2022/05/08 01:45:13;;;;;;;3.80;1.70;;;10.10;91.50;;;;;;5018605;28;20482;-57
2022/05/08 01:50:24;;;;;;;2.78;1.38;;;9.90;91.70;;;;;;5026475;28;20053;-57
2022/05/08 01:52:50;;;;;;;1.77;1.25;;;10.00;91.80;;;;;;5020559;28;20021;-57
2022/05/08 01:55:17;;;;;;;2.38;1.52;;;9.90;91.60;;;;;;5017622;28;20401;-57
2022/05/08 01:57:43;;;;;;;2.72;1.75;;;10.00;91.60;;;;;;5019616;28;20030;-57
2022/05/08 02:00:09;;;;;;;5.53;1.67;;;10.00;91.90;;;;;;5017212;28;20041;-57
2022/05/08 02:02:35;;;;;;;3.63;1.50;;;10.00;91.60;;;;;;5021966;28;20068;-57
2022/05/08 02:05:02;;;;;;;2.13;1.83;;;10.00;91.80;;;;;;5021375;28;20057;-57
2022/05/08 02:07:28;;;;;;;3.67;1.85;;;9.90;91.70;;;;;;5016104;28;20053;-57
2022/05/08 02:09:55;;;;;;;2.22;1.40;;;10.00;91.70;;;;;;5018262;28;20048;-57
2022/05/08 02:12:21;;;;;;;3.15;2.00;;;10.00;91.70;;;;;;5024417;28;20022;-56
2022/05/08 02:14:47;;;;;;;4.05;1.85;;;10.10;91.60;;;;;;5018612;28;20061;-57
2022/05/08 02:17:12;;;;;;;2.88;1.70;;;10.00;91.60;;;;;;5011862;28;20022;-56
2022/05/08 02:19:38;;;;;;;2.92;2.10;;;10.00;91.60;;;;;;5018086;28;20404;-57
2022/05/08 02:22:04;;;;;;;5.60;1.88;;;10.00;91.50;;;;;;5019082;28;20122;-57
2022/05/08 02:24:30;;;;;;;4.30;2.50;;;9.90;91.70;;;;;;5023023;28;20118;-57
2022/05/08 02:26:56;;;;;;;3.65;2.03;;;9.80;91.80;;;;;;5019215;28;20463;-57
2022/05/08 02:29:22;;;;;;;5.28;3.58;;;9.70;92.00;;;;;;5015303;28;20041;-57
2022/05/08 02:31:47;;;;;;;6.47;2.47;;;9.60;92.10;;;;;;5018648;28;20037;-57
2022/05/08 02:34:13;;;;;;;8.25;3.20;;;9.50;92.20;;;;;;5024068;28;20030;-57
2022/05/08 02:36:39;;;;;;;5.88;2.63;;;9.40;92.40;;;;;;5017418;28;20086;-57
2022/05/08 02:39:05;;;;;;;6.47;2.75;;;9.30;92.80;;;;;;5018621;28;20095;-57
2022/05/08 02:41:30;;;;;;;5.50;3.08;;;9.20;92.70;;;;;;5019418;28;20036;-57
2022/05/08 02:43:56;;;;;;;5.85;2.53;;;9.20;92.80;;;;;;5016884;28;20033;-57
2022/05/08 02:46:22;;;;;;;5.57;2.72;;;9.10;92.90;;;;;;5009889;28;20038;-58
2022/05/08 02:48:48;;;;;;;6.22;2.55;;;9.00;93.00;;;;;;5017828;28;20033;-57
2022/05/08 02:51:14;;;;;;;4.95;3.10;;;9.00;93.00;;;;;;5016164;28;20040;-57
2022/05/08 02:53:39;;;;;;;8.88;3.65;;;8.80;93.10;;;;;;5004242;28;20034;-57
2022/05/08 02:58:49;;;;;;;4.82;2.70;;;8.60;93.60;;;;;;5016889;28;20032;-57
2022/05/08 03:01:15;;;;;;;5.00;3.22;;;8.60;93.80;;;;;;5010936;28;20385;-57
2022/05/08 03:03:41;;;;;;;6.65;4.03;;;8.50;93.80;;;;;;5019674;28;20053;-57
2022/05/08 03:06:07;;;;;;;9.35;3.45;;;8.40;94.10;;;;;;5015887;28;20033;-57
2022/05/08 03:08:33;;;;;;;5.40;3.50;;;8.40;94.00;;;;;;5022056;28;20026;-57
2022/05/08 03:13:43;;;;;;;10.63;3.70;;;8.30;94.20;;;;;;5002874;28;20024;-57
2022/05/08 03:16:10;;;;;;;4.95;2.88;;;8.30;94.40;;;;;;5014316;28;20038;-58
2022/05/08 03:18:39;;;;;;;6.40;3.35;;;8.30;94.40;;;;;;5025301;28;20068;-58
2022/05/08 03:21:09;;;;;;;8.63;3.17;;;8.30;94.50;;;;;;5006403;28;20034;-58
2022/05/08 03:23:35;;;;;;;9.63;3.53;;;8.20;94.60;;;;;;5015283;28;20041;-57
2022/05/08 03:26:01;;;;;;;9.55;3.67;;;8.20;94.70;;;;;;5017655;28;20029;-57
2022/05/08 03:28:27;;;;;;;8.57;4.00;;;8.10;94.70;;;;;;5028760;28;20030;-58
2022/05/08 03:30:52;;;;;;;8.88;3.78;;;8.10;94.80;;;;;;5016475;28;20099;-58
2022/05/08 03:33:18;;;;;;;10.95;4.10;;;8.10;95.10;;;;;;5013891;28;20029;-56
2022/05/08 03:35:44;;;;;;;9.82;3.53;;;8.10;95.00;;;;;;5016533;28;20061;-57
2022/05/08 03:38:10;;;;;;;8.73;3.90;;;8.10;95.10;;;;;;5005208;28;20029;-58
2022/05/08 03:40:36;;;;;;;8.93;4.90;;;8.10;95.10;;;;;;5011528;28;20030;-57
2022/05/08 03:43:03;;;;;;;9.32;4.13;;;8.20;95.00;;;;;;5007039;28;20042;-57
2022/05/08 03:45:30;;;;;;;9.70;4.93;;;8.20;94.80;;;;;;5019459;28;20064;-58
2022/05/08 03:47:56;;;;;;;12.30;4.88;;;8.20;94.80;;;;;;5021412;28;20112;-58
2022/05/08 03:50:22;;;;;;;8.75;4.35;;;8.30;94.60;;;;;;5022535;28;20107;-59
2022/05/08 03:52:48;;;;;;;10.05;4.22;;;8.20;94.60;;;;;;5008337;28;20470;-57
2022/05/08 03:55:15;;;;;;;8.65;4.35;;;8.10;94.70;;;;;;5013681;28;20072;-56
2022/05/08 03:57:42;;;;;;;13.80;4.70;;;8.10;94.80;;;;;;5016125;28;20033;-57
2022/05/08 04:00:09;;;;;;;7.25;4.15;;;8.00;95.00;;;;;;5009562;28;20026;-57
2022/05/08 04:02:34;;;;;;;10.55;4.75;;;8.00;95.20;;;;;;5007249;28;20474;-57
2022/05/08 04:05:01;;;;;;;13.50;5.03;;;8.00;95.20;;;;;;5019999;28;20122;-57
2022/05/08 04:07:27;;;;;;;8.82;4.00;;;8.00;95.20;;;;;;5015735;28;20014;-57
2022/05/08 04:09:53;;;;;;;9.90;4.60;;;7.90;95.00;;;;;;5022284;28;20033;-57
2022/05/08 04:12:18;;;;;;;12.57;4.63;;;7.80;95.10;;;;;;5011042;28;20033;-57
2022/05/08 04:14:44;;;;;;;10.35;5.20;;;7.80;95.30;;;;;;5026873;28;20033;-57
2022/05/08 04:17:10;;;;;;;14.32;5.20;;;7.70;95.50;;;;;;5015629;28;20030;-57
2022/05/08 04:19:35;;;;;;;8.88;4.63;;;7.70;95.50;;;;;;5019396;28;20057;-56
2022/05/08 04:24:45;;;;;;;12.68;5.40;;;7.60;95.70;;;;;;5013715;28;20041;-57
2022/05/08 04:27:11;;;;;;;10.38;5.50;;;7.70;95.80;;;;;;5011068;28;20029;-57
2022/05/08 04:29:37;;;;;;;12.40;5.38;;;7.70;95.70;;;;;;5014674;28;20387;-58
2022/05/08 04:32:04;;;;;;;10.07;4.90;;;7.70;95.80;;;;;;5017290;28;20389;-55
2022/05/08 04:34:29;;;;;;;14.00;5.53;;;7.70;95.80;;;;;;5021554;28;20033;-56
2022/05/08 04:36:55;;;;;;;11.63;4.75;;;7.70;95.90;;;;;;5011853;28;20034;-57
2022/05/08 04:39:21;;;;;;;13.32;4.63;;;7.70;96.00;;;;;;5020594;28;20030;-58
2022/05/08 04:41:46;;;;;;;10.40;5.13;;;7.70;95.90;;;;;;5017246;28;20482;-56
2022/05/08 04:44:12;;;;;;;15.18;5.57;;;7.70;96.00;;;;;;5018800;28;20128;-57
2022/05/08 04:46:38;;;;;;;12.63;5.00;;;7.80;96.00;;;;;;5008806;28;20029;-56
2022/05/08 04:49:03;;;;;;;11.63;4.68;;;7.80;95.80;;;;;;5018247;28;20041;-57
2022/05/08 04:51:30;;;;;;;9.15;5.57;;;7.80;95.80;;;;;;5020956;28;20128;-58
2022/05/08 04:53:55;;;;;;;9.48;5.20;;;7.80;95.80;;;;;;5022036;28;20032;-57
2022/05/08 04:56:21;;;;;;;14.10;5.72;;;7.80;95.80;;;;;;5016352;28;20029;-57
2022/05/08 04:58:47;;;;;;;10.93;5.18;;;7.80;95.90;;;;;;5019115;28;20099;-57
2022/05/08 05:01:13;;;;;;;11.23;4.50;;;7.90;95.90;;;;;;5020714;28;20022;-56
2022/05/08 05:03:39;;;;;;;11.32;5.40;;;7.80;95.80;;;;;;5014051;28;20454;-57
2022/05/08 05:06:05;;;;;;;8.45;5.30;;;7.90;95.90;;;;;;5019867;28;20038;-57
2022/05/08 05:08:30;;;;;;;13.98;5.13;;;7.90;95.70;;;;;;5028375;28;20116;-57
2022/05/08 05:10:56;;;;;;;11.77;5.60;;;8.00;95.90;;;;;;5019914;28;21065;-57
2022/05/08 05:13:22;;;;;;;18.33;6.00;;;8.00;95.90;;;;;;5024764;28;20108;-57
2022/05/08 05:15:47;;;;;;;9.45;5.53;;;8.10;96.00;;;;;;5021163;28;20049;-58
2022/05/08 05:18:13;;;;;;;14.55;6.20;;;8.10;95.80;;;;;;5021477;28;20123;-58
2022/05/08 05:20:39;;;;;;;8.80;5.18;;;8.10;95.70;;;;;;5019604;28;20037;-58
2022/05/08 05:23:05;;;;;;;12.77;5.78;;;8.20;95.70;;;;;;5020386;28;20084;-58
2022/05/08 05:25:31;;;;;;;12.30;5.72;;;8.20;95.60;;;;;;5028183;28;20366;-58
2022/05/08 05:27:57;;;;;;;12.00;5.60;;;8.30;95.60;;;;;;5008464;28;20038;-58
2022/05/08 05:30:23;;;;;;;12.77;6.80;;;8.30;95.50;;;;;;5023505;28;20046;-58
2022/05/08 05:32:49;;;;;;;14.35;6.20;;;8.40;95.20;;;;;;5020040;28;20037;-58
2022/05/08 05:35:14;;;;;;;13.20;5.32;;;8.50;95.10;;;;;;5011235;28;20022;-57
2022/05/08 05:37:40;;;;;;;12.95;6.22;;;8.50;95.00;;;;;;5021102;28;20037;-57
2022/05/08 05:40:09;;;;;;;13.35;6.60;;;8.60;94.90;;;;;;5024221;28;20038;-58
2022/05/08 05:42:35;;;;;;;10.65;6.25;;;8.50;94.80;;;;;;5009648;28;20045;-59
2022/05/08 05:45:01;;;;;;;12.52;6.75;;;8.50;95.00;;;;;;5014507;28;20063;-58
2022/05/08 05:50:11;;;;;;;15.13;7.05;;;8.60;95.20;;;;;;5005615;28;20505;-57
2022/05/08 05:52:37;;;;;;;17.90;7.82;;;8.60;95.20;;;;;;5016375;28;20497;-57
2022/05/08 05:55:06;;;;;;;16.08;7.65;;;8.80;95.20;;;;;;5013005;28;20029;-57
2022/05/08 05:57:33;;;;;;;17.13;6.82;;;8.80;95.40;;;;;;5011988;28;20037;-57
2022/05/08 05:59:59;;;;;;;11.50;6.03;;;8.80;95.10;;;;;;5028648;28;20025;-56
2022/05/08 06:02:24;;;;;;;21.40;6.22;;;9.00;94.90;;;;;;5015832;28;20367;-57
2022/05/08 06:04:50;;;;;;;13.02;6.45;;;9.10;94.80;;;;;;5020419;28;20041;-57
2022/05/08 06:07:16;;;;;;;20.00;7.85;;;9.20;94.70;;;;;;5026245;28;20470;-57
2022/05/08 06:09:42;;;;;;;12.75;4.80;;;9.30;94.50;;;;;;5027087;28;20060;-57
2022/05/08 06:12:07;;;;;;;17.95;5.28;;;9.40;94.50;;;;;;5005423;28;20038;-56
2022/05/08 06:14:33;;;;;;;16.27;5.45;;;9.40;94.30;;;;;;5010168;28;20025;-57
2022/05/08 06:16:59;;;;;;;14.48;5.22;;;9.60;94.10;;;;;;5016384;28;20083;-57
2022/05/08 06:19:25;;;;;;;13.25;4.75;;;9.60;93.70;;;;;;5018041;28;20025;-58
2022/05/08 06:21:52;;;;;;;13.43;4.47;;;9.80;93.70;;;;;;5027473;28;20400;-57
2022/05/08 06:24:17;;;;;;;16.52;5.18;;;9.90;93.50;;;;;;5019265;28;20030;-57
2022/05/08 06:26:43;;;;;;;21.42;5.88;;;10.00;93.30;;;;;;5011189;28;20088;-57
2022/05/08 06:29:09;;;;;;;11.40;4.50;;;10.10;93.10;;;;;;5013832;28;20022;-57
2022/05/08 06:31:35;;;;;;;17.52;4.25;;;10.20;93.00;;;;;;5022722;28;20034;-57
2022/05/08 06:34:01;;;;;;;11.73;4.10;;;10.20;92.80;;;;;;5017234;28;20025;-58
2022/05/08 06:36:27;;;;;;;12.80;4.75;;;10.30;92.50;;;;;;5017786;28;20124;-57
2022/05/08 06:38:53;;;;;;;14.25;4.20;;;10.30;92.40;;;;;;5018608;28;20029;-57
2022/05/08 06:41:19;;;;;;;16.25;4.20;;;10.30;92.30;;;;;;5012473;28;20026;-58
2022/05/08 06:43:45;;;;;;;15.93;4.82;;;10.30;92.10;;;;;;5010200;28;20057;-59
2022/05/08 06:46:11;;;;;;;18.88;3.88;;;10.40;91.90;;;;;;5010083;28;20026;-58
2022/05/08 06:48:38;;;;;;;20.30;5.13;;;10.40;91.70;;;;;;5000008;28;20040;-58
2022/05/08 06:51:04;;;;;;;21.05;4.00;;;10.40;91.40;;;;;;5004544;28;20073;-56
2022/05/08 06:53:31;;;;;;;11.88;3.75;;;10.40;91.30;;;;;;5015943;28;20029;-57
2022/05/08 06:55:56;;;;;;;18.05;3.33;;;10.50;91.50;;;;;;5004720;28;20053;-59
2022/05/08 06:58:24;;;;;;;17.95;4.82;;;10.50;91.30;;;;;;5012538;28;20469;-58
2022/05/08 07:03:39;;;;;;;12.25;3.90;;;10.50;91.20;;;;;;5005763;28;20036;-57
2022/05/08 07:06:05;;;;;;;16.00;3.88;;;10.60;90.90;;;;;;5010409;28;20049;-58
2022/05/08 07:08:33;;;;;;;15.93;4.25;;;10.60;90.70;;;;;;5018980;28;20032;-58
2022/05/08 07:11:00;;;;;;;14.05;3.30;;;10.70;90.60;;;;;;5003732;28;20496;-59
2022/05/08 07:13:26;;;;;;;15.85;3.60;;;10.70;90.60;;;;;;5021771;28;20057;-58
2022/05/08 07:15:53;;;;;;;17.60;3.92;;;10.70;90.60;;;;;;5006140;28;20030;-58
2022/05/08 07:18:19;;;;;;;15.75;3.70;;;10.80;90.10;;;;;;5014069;28;20042;-58
2022/05/08 07:20:45;;;;;;;12.07;3.17;;;10.80;90.20;;;;;;5016304;28;20038;-59
2022/05/08 07:23:11;;;;;;;16.30;3.28;;;10.90;90.20;;;;;;5023006;28;20408;-58
2022/05/08 07:25:41;;;;;;;16.90;3.63;;;10.90;89.70;;;;;;5007933;28;20099;-58
2022/05/08 07:28:07;;;;;;;15.30;4.05;;;11.00;90.00;;;;;;5018164;28;20033;-58
2022/05/08 07:30:32;;;;;;;13.23;3.95;;;11.10;89.10;;;;;;5024745;28;20041;-58
2022/05/08 07:33:01;;;;;;;13.10;3.90;;;11.10;89.10;;;;;;5010279;28;20053;-58
2022/05/08 07:38:11;;;;;;;10.30;3.00;;;11.30;86.80;;;;;;5017212;28;20099;-58
2022/05/08 07:40:37;;;;;;;10.90;3.08;;;11.30;87.20;;;;;;5004115;28;20030;-58
2022/05/08 07:43:03;;;;;;;13.73;3.90;;;11.40;86.80;;;;;;5017931;28;20034;-59
2022/05/08 07:45:29;;;;;;;13.82;3.03;;;11.50;85.90;;;;;;5011705;28;20440;-58
2022/05/08 07:47:56;;;;;;;13.30;2.17;;;11.60;85.10;;;;;;5016428;28;20488;-58
2022/05/08 07:50:21;;;;;;;11.90;2.63;;;11.70;84.80;;;;;;5002500;28;20037;-57
2022/05/08 07:52:47;;;;;;;6.55;2.28;;;11.70;84.10;;;;;;5009426;28;20052;-57
2022/05/08 07:55:13;;;;;;;8.38;3.05;;;11.90;84.50;;;;;;5016256;28;20025;-60
2022/05/08 07:57:38;;;;;;;16.33;3.75;;;11.90;82.80;;;;;;5001615;28;20030;-57
2022/05/08 08:00:05;;;;;;;17.05;2.58;;;12.00;82.80;;;;;;5003958;28;20025;-58
2022/05/08 08:02:31;;;;;;;11.68;2.85;;;12.10;82.00;;;;;;5006192;28;20041;-58
2022/05/08 08:04:57;;;;;;;17.58;2.67;;;12.20;82.20;;;;;;5003652;28;20026;-59
2022/05/08 08:07:23;;;;;;;15.68;2.85;;;12.30;81.00;;;;;;5015365;28;20033;-60
2022/05/08 08:09:48;;;;;;;17.63;3.38;;;12.30;80.60;;;;;;5011356;28;20132;-58
2022/05/08 08:12:14;;;;;;;12.10;2.13;;;12.40;80.30;;;;;;5006445;28;20033;-58
2022/05/08 08:14:40;;;;;;;8.23;2.95;;;12.50;80.10;;;;;;5010463;28;20056;-58
2022/05/08 08:17:05;;;;;;;15.82;2.35;;;12.60;79.30;;;;;;5008994;28;20040;-57
2022/05/08 08:19:31;;;;;;;17.58;3.25;;;12.70;78.30;;;;;;5009186;28;20106;-58
2022/05/08 08:21:59;;;;;;;19.52;3.35;;;12.80;78.40;;;;;;5000598;28;20587;-58
2022/05/08 08:24:25;;;;;;;11.52;2.00;;;12.90;78.40;;;;;;5018485;28;20667;-58
2022/05/08 08:26:51;;;;;;;10.75;2.55;;;13.00;78.00;;;;;;5011357;28;20123;-58
2022/05/08 08:29:17;;;;;;;13.80;2.45;;;13.00;78.00;;;;;;5014114;28;20021;-58
2022/05/08 08:31:42;;;;;;;11.18;2.00;;;13.10;77.40;;;;;;5015424;28;20053;-58
2022/05/08 08:34:08;;;;;;;8.75;2.40;;;13.10;76.80;;;;;;5027115;28;20068;-58
2022/05/08 08:36:35;;;;;;;21.02;2.88;;;13.20;78.10;;;;;;5014740;28;20026;-58
2022/05/08 08:39:02;;;;;;;9.85;2.88;;;13.20;77.00;;;;;;5014181;28;20052;-57
2022/05/08 08:41:34;;;;;;;9.93;2.67;;;13.30;76.40;;;;;;5020258;28;20029;-58
2022/05/08 08:49:52;;;;;;;17.08;2.22;;;13.60;75.60;;;;;;5014599;28;20143;-58
2022/05/08 08:52:21;;;;;;;11.10;2.30;;;13.70;75.40;;;;;;5014067;28;20107;-57
2022/05/08 08:54:47;;;;;;;11.68;2.00;;;13.90;73.20;;;;;;5019679;28;20425;-58
2022/05/08 08:57:22;;;;;;;12.63;2.33;;;14.00;72.50;;;;;;5012673;28;20037;-59
2022/05/08 08:59:47;;;;;;;10.07;2.33;;;14.00;71.70;;;;;;4998678;28;20030;-58
2022/05/08 09:02:18;;;;;;;12.60;1.80;;;14.20;72.50;;;;;;5010587;28;20038;-58
2022/05/08 09:04:50;;;;;;;9.82;2.20;;;14.30;71.80;;;;;;5009385;28;20025;-58
2022/05/08 09:07:34;;;;;;;;;;;14.40;72.00;;;;;;5014655;28;20095;-58
2022/05/08 09:13:13;;;;;;;12.32;2.60;;;14.50;69.70;;;;;;5070552;28;20407;-58
2022/05/08 09:15:39;;;;;;;12.48;2.53;;;14.60;70.70;;;;;;5049768;28;20121;-58
2022/05/08 09:18:10;;;;;;;16.02;2.58;;;14.80;69.50;;;;;;5054477;28;20455;-58
2022/05/08 09:20:51;;;;;;;11.60;2.40;;;14.90;67.90;;;;;;5061002;28;20091;-58
2022/05/08 09:23:19;;;;;;;13.73;3.20;;;14.90;67.20;;;;;;5061312;28;20032;-58
2022/05/08 09:26:00;;;;;;;12.23;2.20;;;15.00;69.20;;;;;;5059552;28;20376;-58
2022/05/08 09:28:44;;;;;;;11.40;2.13;;;15.20;66.30;;;;;;5058260;28;20104;-59
2022/05/08 09:31:16;;;;;;;8.40;2.00;;;15.30;65.80;;;;;;5060480;28;20037;-57
2022/05/08 09:33:44;;;;;;;10.15;2.05;;;15.40;64.90;;;;;;5047941;28;20021;-58
2022/05/08 09:36:12;;;;;;;10.32;1.83;;;15.50;64.50;;;;;;5054229;28;20025;-58
2022/05/08 09:38:42;;;;;;;12.57;2.85;;;15.70;63.60;;;;;;5056953;28;20032;-59
2022/05/08 09:41:08;;;;;;;6.68;1.95;;;15.80;63.90;;;;;;5056962;28;20039;-58
2022/05/08 09:43:37;;;;;;;13.32;2.45;;;15.80;62.80;;;;;;5060229;28;20029;-58
2022/05/08 09:46:05;;;;;;;16.45;2.42;;;15.80;63.00;;;;;;5058134;28;20464;-57
2022/05/08 09:48:33;;;;;;;15.55;1.98;;;15.90;63.00;;;;;;5065193;28;20031;-58
2022/05/08 09:51:07;;;;;;;13.63;2.58;;;15.80;62.40;;;;;;5044695;28;20064;-57
2022/05/08 09:53:34;;;;;;;6.95;1.95;;;15.80;62.60;;;;;;5058325;28;20041;-58
2022/05/08 09:56:03;;;;;;;12.05;2.00;;;16.00;62.60;;;;;;5056898;28;20107;-56
2022/05/08 09:58:29;;;;;;;11.15;2.88;;;16.20;61.00;;;;;;5060976;28;20120;-58
2022/05/08 10:00:56;;;;;;;9.35;2.75;;;16.20;60.30;;;;;;5058564;28;20040;-58
2022/05/08 10:03:22;;;;;;;8.68;2.67;;;16.20;60.10;;;;;;5055795;28;20074;-59
2022/05/08 10:05:48;;;;;;;8.75;2.00;;;16.20;59.60;;;;;;5052609;28;20029;-58
2022/05/08 10:08:20;;;;;;;5.82;1.75;;;16.20;59.70;;;;;;5043729;28;20472;-57
2022/05/08 10:14:05;;;;;;;8.90;2.05;;;16.40;59.40;;;;;;5042823;28;20179;-57
2022/05/08 10:17:02;;;;;;;5.72;1.40;;;16.60;59.10;;;;;;5061133;28;20032;-57
2022/05/08 10:19:28;;;;;;;7.82;1.73;;;16.70;58.40;;;;;;5053405;28;20048;-57
2022/05/08 10:21:57;;;;;;;11.10;1.98;;;16.90;58.50;;;;;;5060057;28;20029;-57
2022/05/08 10:24:38;;;;;;;13.85;2.65;;;17.20;57.80;;;;;;5049370;28;20033;-57
2022/05/08 10:27:08;;;;;;;8.85;2.20;;;17.20;57.00;;;;;;5051647;28;20480;-57
2022/05/08 10:29:34;;;;;;;10.25;2.15;;;17.20;56.70;;;;;;5048033;28;20037;-58
2022/05/08 10:31:59;;;;;;;9.55;1.98;;;17.30;56.00;;;;;;5041228;28;20132;-57
2022/05/08 10:34:33;;;;;;;9.93;2.22;;;17.30;57.00;;;;;;5051291;28;20033;-57
2022/05/08 10:37:13;;;;;;;10.43;1.92;;;17.50;56.50;;;;;;5029610;28;20063;-57
2022/05/08 10:39:48;;;;;;;7.65;2.42;;;17.60;56.70;;;;;;5035340;28;20029;-58
2022/05/08 10:44:59;;;;;;;4.40;1.45;;;17.80;54.70;;;;;;5041226;28;20041;-58
2022/05/08 10:47:36;;;;;;;6.88;1.60;;;17.80;54.60;;;;;;5037076;28;20030;-58
2022/05/08 10:50:06;;;;;;;12.75;1.95;;;18.00;54.60;;;;;;5043972;28;20052;-58
2022/05/08 10:52:33;;;;;;;9.25;1.60;;;18.10;54.60;;;;;;5029187;28;20041;-58
2022/05/08 10:55:01;;;;;;;10.65;1.38;;;18.10;54.30;;;;;;5036549;28;20472;-58
2022/05/08 10:57:30;;;;;;;13.93;2.63;;;18.10;53.80;;;;;;5036457;28;20540;-58
2022/05/08 10:59:56;;;;;;;9.18;1.27;;;18.20;53.10;;;;;;5038451;28;20461;-58
2022/05/08 11:02:55;;;;;;;6.20;1.58;;;18.70;53.10;;;;;;5044994;28;20417;-58
2022/05/08 11:05:26;;;;;;;9.32;1.40;;;19.50;51.40;;;;;;5024815;28;20434;-58
2022/05/08 11:08:00;;;;;;;7.60;1.70;;;19.90;49.60;;;;;;5030390;28;20029;-58
2022/05/08 11:10:28;;;;;;;7.18;1.25;;;20.40;48.30;;;;;;5038552;28;20095;-58
2022/05/08 11:13:01;;;;;;;8.50;1.70;;;20.30;47.40;;;;;;5033188;28;20063;-58
2022/05/08 11:15:29;;;;;;;6.93;1.75;;;20.40;47.40;;;;;;5043185;28;20030;-57
2022/05/08 11:18:15;;;;;;;8.63;2.20;;;20.70;47.10;;;;;;5023292;28;20033;-58
2022/05/08 11:21:23;;;;;;;10.57;1.80;;;21.20;44.90;;;;;;5026946;28;20086;-57
2022/05/08 11:23:44;;;;;;;11.40;1.95;;;21.60;43.70;;;;;;5038676;28;20435;-58
2022/05/08 11:26:10;;;;;;;8.30;1.73;;;21.70;43.20;;;;;;5033592;28;20040;-58
2022/05/08 11:28:49;;;;;;;11.32;1.67;;;21.90;41.90;;;;;;5043039;28;20064;-58
2022/05/08 11:31:19;;;;;;;8.50;1.98;;;21.90;42.30;;;;;;5044124;28;20043;-58
2022/05/08 11:36:35;;;;;;;6.10;1.92;;;21.80;41.50;;;;;;5034137;28;20121;-57
2022/05/08 11:39:05;;;;;;;5.75;1.45;;;21.90;42.00;;;;;;5032041;28;20032;-58
2022/05/08 11:41:44;;;;;;;7.85;1.92;;;22.10;41.70;;;;;;5041423;28;20052;-58
2022/05/08 11:44:15;;;;;;;6.82;1.80;;;22.40;41.40;;;;;;5037856;28;20385;-58
2022/05/08 11:46:45;;;;;;;7.13;1.65;;;22.40;40.00;;;;;;5027104;28;20079;-57
2022/05/08 11:49:21;;;;;;;6.00;1.65;;;22.20;40.40;;;;;;5036730;28;20027;-57
2022/05/08 11:51:53;;;;;;;6.57;2.33;;;22.30;40.70;;;;;;5034784;28;20156;-58
2022/05/08 11:54:24;;;;;;;9.02;1.60;;;22.50;40.70;;;;;;5044479;28;20032;-58
2022/05/08 11:56:52;;;;;;;5.32;1.08;;;23.30;39.70;;;;;;5029212;28;20507;-58
2022/05/08 11:59:26;;;;;;;7.90;1.63;;;24.00;38.30;;;;;;5043337;28;20036;-57
2022/05/08 12:01:54;;;;;;;6.82;1.80;;;24.20;37.30;;;;;;5029439;28;20025;-57
2022/05/08 12:04:29;;;;;;;9.38;1.90;;;24.30;36.40;;;;;;5036585;28;20041;-57
2022/05/08 12:06:55;;;;;;;11.93;2.10;;;23.60;37.90;;;;;;5029957;28;20021;-57
2022/05/08 12:09:20;;;;;;;5.78;1.60;;;23.70;37.70;;;;;;5035024;28;20037;-57
2022/05/08 12:11:47;;;;;;;5.55;1.42;;;23.70;38.50;;;;;;5036846;28;20073;-57
2022/05/08 12:14:13;;;;;;;7.30;1.45;;;23.60;37.00;;;;;;5043048;28;20029;-57
2022/05/08 12:16:38;;;;;;;7.75;1.45;;;23.00;38.30;;;;;;5037387;28;20388;-56
2022/05/08 12:19:11;;;;;;;11.98;1.58;;;23.10;38.20;;;;;;5038144;28;20104;-57
2022/05/08 12:21:38;;;;;;;5.38;1.55;;;23.20;37.90;;;;;;5025969;28;20508;-57
2022/05/08 12:24:11;;;;;;;6.90;1.60;;;22.70;38.30;;;;;;5044308;28;20389;-57
2022/05/08 12:26:37;;;;;;;7.25;1.38;;;22.80;38.70;;;;;;5040515;28;20100;-57
2022/05/08 12:29:21;;;;;;;11.68;1.70;;;23.00;38.70;;;;;;5036204;28;20025;-57
2022/05/08 12:31:50;;;;;;;8.95;1.85;;;23.40;38.10;;;;;;5021890;28;20107;-58
2022/05/08 12:34:19;;;;;;;6.30;1.48;;;24.30;36.70;;;;;;5038139;28;20120;-58
2022/05/08 12:36:45;;;;;;;7.70;1.48;;;24.00;35.60;;;;;;5043194;28;20033;-58
2022/05/08 12:39:11;;;;;;;7.75;1.42;;;23.70;36.60;;;;;;5034125;28;20030;-57
2022/05/08 12:41:40;;;;;;;7.65;1.00;;;24.10;36.00;;;;;;5038733;28;20039;-58
2022/05/08 12:44:07;;;;;;;9.07;1.65;;;24.40;35.40;;;;;;5026574;28;20037;-58
2022/05/08 12:46:34;;;;;;;5.38;1.17;;;24.60;33.80;;;;;;5037657;28;20056;-58
2022/05/08 12:49:02;;;;;;;8.20;1.33;;;23.90;34.60;;;;;;5038754;28;20029;-57
2022/05/08 12:51:33;;;;;;;6.93;1.60;;;23.50;35.30;;;;;;5028578;28;20033;-57
2022/05/08 12:54:02;;;;;;;9.18;1.92;;;23.60;34.90;;;;;;5032259;28;20123;-58
2022/05/08 12:56:32;;;;;;;10.35;2.40;;;23.80;35.50;;;;;;5039458;28;20496;-57
2022/05/08 13:01:46;;;;;;;5.88;1.48;;;24.80;34.80;;;;;;5021740;28;20036;-58
2022/05/08 13:04:12;;;;;;;3.70;1.13;;;24.80;34.10;;;;;;5014994;28;20048;-58
2022/05/08 13:06:38;;;;;;;7.88;1.70;;;25.60;33.40;;;;;;5039528;28;20033;-57
2022/05/08 13:09:08;;;;;;;4.55;1.30;;;26.10;32.00;;;;;;5037576;28;20392;-57
2022/05/08 13:11:37;;;;;;;8.65;1.52;;;26.00;32.40;;;;;;5040313;28;20049;-57
2022/05/08 13:14:04;;;;;;;5.00;1.58;;;26.10;31.90;;;;;;5047588;28;20400;-57
2022/05/08 13:16:30;;;;;;;5.38;1.80;;;26.20;31.40;;;;;;5039999;28;20022;-58
2022/05/08 13:18:56;;;;;;;6.35;1.45;;;26.20;31.20;;;;;;5042938;28;20033;-57
2022/05/08 13:21:23;;;;;;;8.07;1.67;;;26.20;31.90;;;;;;5032064;28;20531;-57
2022/05/08 13:23:49;;;;;;;10.63;2.25;;;25.80;33.00;;;;;;5044167;28;20528;-57
2022/05/08 13:26:15;;;;;;;8.60;1.20;;;26.30;32.70;;;;;;5037632;28;20025;-57
2022/05/08 13:28:41;;;;;;;5.22;1.67;;;26.60;31.10;;;;;;5046244;28;20096;-57